KCLW/CLW METAR and TAF weather

Enter ICAO airport designator
Station Type Date Time Source
KCLW METAR 2021/05/12 02:15 UTC NOAA

KCLW 120215Z AUTO 00000KT 10SM CLR 25/21 A3007 RMK AO2


Station Type Date Time Source
KCLW Decoded METAR 2021/05/12 02:15 UTC NOAA

Station name not available
May 11, 2021 - 10:15 PM EDT / 2021.05.12 0215 UTC
Wind: Calm:0
Visibility: 10 mile(s):0
Sky conditions: clear
Temperature: 77 F (25 C)
Dew Point: 69 F (21 C)
Relative Humidity: 78%
Pressure (altimeter): 30.07 in. Hg (1018 hPa)
ob: KCLW 120215Z AUTO 00000KT 10SM CLR 25/21 A3007 RMK AO2
cycle: 2

Station Type Date Time Source
KCLW TAF UTC NOAA

Error!

Example: see airport list